createdAt,value
2023-05-22T00:00:56.646Z,20.46
2023-05-22T00:03:28.915Z,20.44
2023-05-22T00:06:00.317Z,20.41
2023-05-22T00:08:31.150Z,20.39
2023-05-22T00:11:01.676Z,20.37
2023-05-22T00:13:32.509Z,20.34
2023-05-22T00:16:03.152Z,20.33
2023-05-22T00:18:33.650Z,20.29
2023-05-22T00:21:04.430Z,20.26
2023-05-22T00:23:34.936Z,20.23
2023-05-22T00:26:05.726Z,20.21
2023-05-22T00:28:36.422Z,20.17
2023-05-22T00:31:07.245Z,20.15
2023-05-22T00:33:38.409Z,20.13
2023-05-22T00:36:10.165Z,20.10
2023-05-22T00:38:39.150Z,20.08
2023-05-22T00:41:09.736Z,20.03
2023-05-22T00:43:41.143Z,20.01
2023-05-22T00:46:12.730Z,19.99
2023-05-22T00:48:43.384Z,19.98
2023-05-22T00:51:14.732Z,19.96
2023-05-22T00:53:46.125Z,19.93
2023-05-22T00:56:17.885Z,19.91
2023-05-22T00:58:48.819Z,19.89
2023-05-22T01:01:19.882Z,19.86
2023-05-22T01:03:51.563Z,19.84
2023-05-22T01:06:23.347Z,19.81
2023-05-22T01:08:53.878Z,19.80
2023-05-22T01:11:29.655Z,19.77
2023-05-22T01:14:08.471Z,19.76
2023-05-22T01:16:48.543Z,19.73
2023-05-22T01:19:42.130Z,19.71
2023-05-22T01:22:28.207Z,19.69
2023-05-22T01:25:21.253Z,19.65
2023-05-22T01:28:04.085Z,19.64
2023-05-22T01:30:57.472Z,19.62
2023-05-22T01:33:29.905Z,19.60
2023-05-22T01:36:03.968Z,19.58
2023-05-22T01:38:35.603Z,19.57
2023-05-22T01:41:06.923Z,19.55
2023-05-22T01:43:37.662Z,19.53
2023-05-22T01:46:09.059Z,19.52
2023-05-22T01:48:39.586Z,19.49
2023-05-22T01:51:16.128Z,19.46
2023-05-22T01:53:53.621Z,19.44
2023-05-22T01:56:31.631Z,19.42
2023-05-22T01:59:08.889Z,19.39
2023-05-22T02:01:40.576Z,19.37
2023-05-22T02:04:11.189Z,19.35
2023-05-22T02:06:41.527Z,19.32
2023-05-22T02:09:13.775Z,19.29
2023-05-22T02:11:45.255Z,19.27
2023-05-22T02:14:16.284Z,19.25
2023-05-22T02:16:47.801Z,19.24
2023-05-22T02:19:18.761Z,19.23
2023-05-22T02:21:48.838Z,19.21
2023-05-22T02:24:19.469Z,19.18
2023-05-22T02:26:50.240Z,19.17
2023-05-22T02:29:21.201Z,19.15
2023-05-22T02:31:51.729Z,19.14
2023-05-22T02:34:22.339Z,19.12
2023-05-22T02:36:52.908Z,19.09
2023-05-22T02:39:23.578Z,19.06
2023-05-22T02:41:54.093Z,19.03
2023-05-22T02:44:24.796Z,19.00
2023-05-22T02:46:55.505Z,18.97
2023-05-22T02:49:26.545Z,18.95
2023-05-22T02:51:57.074Z,18.92
2023-05-22T02:54:27.561Z,18.90
2023-05-22T02:56:58.151Z,18.89
2023-05-22T02:59:28.652Z,18.86
2023-05-22T03:01:59.258Z,18.85
2023-05-22T03:04:30.488Z,18.83
2023-05-22T03:07:01.704Z,18.81
2023-05-22T03:09:32.281Z,18.79
2023-05-22T03:12:02.972Z,18.77
2023-05-22T03:14:33.556Z,18.75
2023-05-22T03:17:04.739Z,18.73
2023-05-22T03:19:35.386Z,18.71
2023-05-22T03:22:06.725Z,18.70
2023-05-22T03:24:37.684Z,18.68
2023-05-22T03:27:08.815Z,18.67
2023-05-22T03:29:42.709Z,18.64
2023-05-22T03:32:13.816Z,18.63
2023-05-22T03:34:44.627Z,18.61
2023-05-22T03:37:15.391Z,18.59
2023-05-22T03:39:46.049Z,18.57
2023-05-22T03:42:29.708Z,18.55
2023-05-22T03:45:00.630Z,18.54
2023-05-22T03:47:31.274Z,18.52
2023-05-22T03:50:01.954Z,18.50
2023-05-22T03:52:32.466Z,18.49
2023-05-22T03:55:03.485Z,18.46
2023-05-22T03:57:33.189Z,18.43
2023-05-22T04:00:09.907Z,18.39
2023-05-22T04:02:45.402Z,18.37
2023-05-22T04:05:16.824Z,18.35
2023-05-22T04:07:47.511Z,18.33
2023-05-22T04:10:18.122Z,18.31
2023-05-22T04:12:49.136Z,18.30
2023-05-22T04:15:19.847Z,18.30
2023-05-22T04:17:50.522Z,18.28
2023-05-22T04:20:22.337Z,18.28
2023-05-22T04:22:55.411Z,18.29
2023-05-22T04:25:25.910Z,18.29
2023-05-22T04:27:56.700Z,18.30
2023-05-22T04:30:27.318Z,18.31
2023-05-22T04:32:58.371Z,18.31
2023-05-22T04:35:30.591Z,18.31
2023-05-22T04:38:02.221Z,18.31
2023-05-22T04:40:33.574Z,18.32
2023-05-22T04:43:04.381Z,18.30
2023-05-22T04:45:35.588Z,18.32
2023-05-22T04:48:08.046Z,18.32
2023-05-22T04:50:40.013Z,18.34
2023-05-22T04:53:12.709Z,18.36
2023-05-22T04:55:43.268Z,18.36
2023-05-22T04:58:13.761Z,18.37
2023-05-22T05:00:44.564Z,18.38
2023-05-22T05:03:15.743Z,18.39
2023-05-22T05:05:47.808Z,18.40
2023-05-22T05:08:21.715Z,18.42
2023-05-22T05:10:52.830Z,18.43
2023-05-22T05:13:23.551Z,18.44
2023-05-22T05:15:55.910Z,18.47
2023-05-22T05:18:28.164Z,18.51
2023-05-22T05:20:58.961Z,18.53
2023-05-22T05:23:29.822Z,18.55
2023-05-22T05:26:00.333Z,18.58
2023-05-22T05:28:31.744Z,18.61
2023-05-22T05:31:04.037Z,18.64
2023-05-22T05:33:40.527Z,18.67
2023-05-22T05:36:40.747Z,18.70
2023-05-22T05:39:11.331Z,18.72
2023-05-22T05:41:42.220Z,18.75
2023-05-22T05:44:13.492Z,18.76
2023-05-22T05:46:44.171Z,18.80
2023-05-22T05:49:15.601Z,18.82
2023-05-22T05:51:46.648Z,18.84
2023-05-22T05:54:16.994Z,18.86
2023-05-22T05:56:49.001Z,18.88
2023-05-22T05:59:19.926Z,18.90
2023-05-22T06:02:02.126Z,18.92
2023-05-22T06:04:33.685Z,18.93
2023-05-22T06:07:07.995Z,18.95
2023-05-22T06:09:47.875Z,18.98
2023-05-22T06:12:22.804Z,18.99
2023-05-22T06:14:53.427Z,19.01
2023-05-22T06:17:23.962Z,19.02
2023-05-22T06:19:54.555Z,19.03
2023-05-22T06:22:25.764Z,19.04
2023-05-22T06:24:56.876Z,19.05
2023-05-22T06:27:29.215Z,19.08
2023-05-22T06:30:00.411Z,19.10
2023-05-22T06:32:33.163Z,19.13
2023-05-22T06:35:05.067Z,19.15
2023-05-22T06:37:36.884Z,19.17
2023-05-22T06:40:11.156Z,19.19
2023-05-22T06:42:47.218Z,19.21
2023-05-22T06:45:37.590Z,19.24
2023-05-22T06:48:25.330Z,19.27
2023-05-22T06:51:11.549Z,19.26
2023-05-22T06:53:43.490Z,19.28
2023-05-22T06:56:20.754Z,19.31
2023-05-22T06:59:13.186Z,19.33
2023-05-22T07:01:59.358Z,19.37
2023-05-22T07:04:38.525Z,19.40
2023-05-22T07:07:16.320Z,19.44
2023-05-22T07:09:46.902Z,19.46
2023-05-22T07:12:17.513Z,19.49
2023-05-22T07:14:48.483Z,19.50
2023-05-22T07:17:20.635Z,19.53
2023-05-22T07:19:51.290Z,19.55
2023-05-22T07:22:21.878Z,19.57
2023-05-22T07:24:52.579Z,19.59
2023-05-22T07:27:23.244Z,19.61
2023-05-22T07:29:53.824Z,19.63
2023-05-22T07:32:24.943Z,19.64
2023-05-22T07:34:56.053Z,19.68
2023-05-22T07:37:26.747Z,19.71
2023-05-22T07:39:57.505Z,19.74
2023-05-22T07:42:29.398Z,19.77
2023-05-22T07:45:00.048Z,19.80
2023-05-22T07:47:30.723Z,19.82
2023-05-22T07:50:04.266Z,19.84
2023-05-22T07:52:36.090Z,19.86
2023-05-22T07:55:08.769Z,19.89
2023-05-22T07:57:40.880Z,19.91
2023-05-22T08:00:27.340Z,19.93
2023-05-22T08:02:58.044Z,19.96
2023-05-22T08:05:28.677Z,19.97
2023-05-22T08:07:59.225Z,20.00
2023-05-22T08:10:37.235Z,20.02
2023-05-22T08:13:19.448Z,20.06
2023-05-22T08:15:49.978Z,20.08
2023-05-22T08:18:22.460Z,20.11
2023-05-22T08:20:54.961Z,20.15
2023-05-22T08:23:25.750Z,20.17
2023-05-22T08:25:56.305Z,20.20
2023-05-22T08:28:26.770Z,20.22
2023-05-22T08:30:57.822Z,20.25
2023-05-22T08:33:28.354Z,20.28
2023-05-22T08:35:58.941Z,20.31
2023-05-22T08:38:29.490Z,20.33
2023-05-22T08:41:00.971Z,20.36
2023-05-22T08:43:31.960Z,20.40
2023-05-22T08:46:08.854Z,20.43
2023-05-22T08:48:42.151Z,20.43
2023-05-22T08:51:19.721Z,20.48
2023-05-22T08:53:55.776Z,20.50
2023-05-22T08:56:29.283Z,20.53
2023-05-22T08:59:01.358Z,20.56
2023-05-22T09:01:32.534Z,20.59
2023-05-22T09:04:04.714Z,20.62
2023-05-22T09:06:35.320Z,20.64
2023-05-22T09:09:06.075Z,20.66
2023-05-22T09:11:36.771Z,20.68
2023-05-22T09:14:11.672Z,20.71
2023-05-22T09:16:49.032Z,20.73
2023-05-22T09:19:19.748Z,20.75
2023-05-22T09:21:51.378Z,20.77
2023-05-22T09:24:21.931Z,20.79
2023-05-22T09:26:53.148Z,20.82
2023-05-22T09:29:23.733Z,20.86
2023-05-22T09:31:54.389Z,20.88
2023-05-22T09:34:31.083Z,20.90
2023-05-22T09:37:06.654Z,20.94
2023-05-22T09:39:44.544Z,20.98
2023-05-22T09:42:15.098Z,21.00
2023-05-22T09:44:48.971Z,21.01
2023-05-22T09:47:19.755Z,21.02
2023-05-22T09:49:50.296Z,21.05
2023-05-22T09:52:21.940Z,21.08
2023-05-22T09:54:55.010Z,21.12
2023-05-22T09:57:27.469Z,21.15
2023-05-22T10:00:01.043Z,21.19
2023-05-22T10:02:33.682Z,21.24
2023-05-22T10:05:07.267Z,21.27
2023-05-22T10:07:49.901Z,21.31
2023-05-22T10:10:22.372Z,21.37
2023-05-22T10:12:58.046Z,21.41
2023-05-22T10:15:29.363Z,21.45
2023-05-22T10:18:01.490Z,21.49
2023-05-22T10:20:32.670Z,21.52
2023-05-22T10:23:05.953Z,21.54
2023-05-22T10:25:38.669Z,21.58
2023-05-22T10:28:10.463Z,21.60
2023-05-22T10:30:49.603Z,21.63
2023-05-22T10:33:46.150Z,21.66
2023-05-22T10:36:31.644Z,21.69
2023-05-22T10:39:17.625Z,21.72
2023-05-22T10:41:48.651Z,21.74
2023-05-22T10:44:20.155Z,21.76
2023-05-22T10:46:52.349Z,21.77
2023-05-22T10:49:26.062Z,21.79
2023-05-22T10:51:59.781Z,21.81
2023-05-22T10:54:44.474Z,21.83
2023-05-22T10:57:17.602Z,21.86
2023-05-22T10:59:49.802Z,21.88
2023-05-22T11:02:29.557Z,21.90
2023-05-22T11:05:27.569Z,21.93
2023-05-22T11:08:11.918Z,21.94
2023-05-22T11:10:59.599Z,21.98
2023-05-22T11:13:30.921Z,22.00
2023-05-22T11:16:05.522Z,22.02
2023-05-22T11:18:36.220Z,22.06
2023-05-22T11:21:10.569Z,22.10
2023-05-22T11:23:41.141Z,22.15
2023-05-22T11:26:22.578Z,22.20
2023-05-22T11:28:54.276Z,22.26
2023-05-22T11:31:26.455Z,22.32
2023-05-22T11:33:57.061Z,22.37
2023-05-22T11:36:28.693Z,22.42
2023-05-22T11:39:00.226Z,22.48
2023-05-22T11:41:35.355Z,22.53
2023-05-22T11:44:09.020Z,22.59
2023-05-22T11:46:42.110Z,22.67
2023-05-22T11:49:13.350Z,22.73
2023-05-22T11:51:43.961Z,22.78
2023-05-22T11:54:14.413Z,22.84
2023-05-22T11:56:46.343Z,22.90
2023-05-22T11:59:16.913Z,22.95
2023-05-22T12:01:50.175Z,23.01
2023-05-22T12:04:20.690Z,23.07
2023-05-22T12:06:51.587Z,23.11
2023-05-22T12:09:23.287Z,23.15
2023-05-22T12:11:55.906Z,23.19
2023-05-22T12:14:29.357Z,23.24
2023-05-22T12:17:01.363Z,23.28
2023-05-22T12:19:32.688Z,23.32
2023-05-22T12:22:05.415Z,23.35
2023-05-22T12:24:42.182Z,23.40
2023-05-22T12:27:13.536Z,23.45
2023-05-22T12:29:44.907Z,23.50
2023-05-22T12:32:15.479Z,23.54
2023-05-22T12:34:47.926Z,23.58
2023-05-22T12:37:23.260Z,23.64
2023-05-22T12:40:01.596Z,23.68
2023-05-22T12:42:32.163Z,23.69
2023-05-22T12:45:02.708Z,23.71
2023-05-22T12:47:33.512Z,23.73
2023-05-22T12:50:04.114Z,23.76
2023-05-22T12:52:36.120Z,23.76
2023-05-22T12:55:08.170Z,23.77
2023-05-22T12:57:38.900Z,23.78
2023-05-22T13:00:11.765Z,23.79
2023-05-22T13:02:42.622Z,23.80
2023-05-22T13:05:13.397Z,23.81
2023-05-22T13:07:44.037Z,23.82
2023-05-22T13:10:14.866Z,23.84
2023-05-22T13:12:47.143Z,23.86
2023-05-22T13:15:17.770Z,23.88
2023-05-22T13:17:48.291Z,23.90
2023-05-22T13:20:18.817Z,23.95
2023-05-22T13:22:49.317Z,24.00
2023-05-22T13:25:20.047Z,24.05
2023-05-22T13:27:50.631Z,24.10
2023-05-22T13:30:21.111Z,24.16
2023-05-22T13:32:51.809Z,24.20
2023-05-22T13:35:22.369Z,24.23
2023-05-22T13:37:53.290Z,24.26
2023-05-22T13:40:23.953Z,24.30
2023-05-22T13:42:55.051Z,24.32
2023-05-22T13:45:26.521Z,24.37
2023-05-22T13:47:55.978Z,24.42
2023-05-22T13:50:26.494Z,24.45
2023-05-22T13:52:57.176Z,24.50
2023-05-22T13:55:27.978Z,24.55
2023-05-22T13:57:58.985Z,24.61
2023-05-22T14:00:29.732Z,24.68
2023-05-22T14:03:00.620Z,24.73
2023-05-22T14:05:32.105Z,24.79
2023-05-22T14:08:02.719Z,24.86
2023-05-22T14:10:34.658Z,24.92
2023-05-22T14:13:05.279Z,24.98
2023-05-22T14:15:35.837Z,25.03
2023-05-22T14:18:06.742Z,25.09
2023-05-22T14:20:37.315Z,25.14
2023-05-22T14:23:07.962Z,25.18
2023-05-22T14:25:42.896Z,25.23
2023-05-22T14:28:14.177Z,25.27
2023-05-22T14:30:44.816Z,25.32
2023-05-22T14:33:15.755Z,25.37
2023-05-22T14:35:46.352Z,25.44
2023-05-22T14:38:16.966Z,25.49
2023-05-22T14:40:47.694Z,25.55
2023-05-22T14:43:18.232Z,25.62
2023-05-22T14:45:48.700Z,25.67
2023-05-22T14:48:19.359Z,25.73
2023-05-22T14:51:19.055Z,25.78
2023-05-22T14:54:04.457Z,25.85
2023-05-22T14:56:35.053Z,25.92
2023-05-22T14:59:05.564Z,25.98
2023-05-22T15:02:38.945Z,26.05
2023-05-22T15:05:10.699Z,26.11
2023-05-22T15:07:59.712Z,26.16
2023-05-22T15:10:30.197Z,26.20
2023-05-22T15:13:00.718Z,26.25
2023-05-22T15:15:31.372Z,26.30
2023-05-22T15:18:04.797Z,26.33
2023-05-22T15:20:35.537Z,26.36
2023-05-22T15:23:06.395Z,26.38
2023-05-22T15:25:37.526Z,26.40
2023-05-22T15:28:08.376Z,26.42
2023-05-22T15:30:41.920Z,26.44
2023-05-22T15:33:12.785Z,26.44
2023-05-22T15:35:46.646Z,26.42
2023-05-22T15:38:17.416Z,26.39
2023-05-22T15:40:48.038Z,26.35
2023-05-22T15:43:18.898Z,26.32
2023-05-22T15:45:50.526Z,26.28
2023-05-22T15:48:21.169Z,26.24
2023-05-22T15:50:51.636Z,26.18
2023-05-22T15:53:22.826Z,26.12
2023-05-22T15:55:54.639Z,26.06
2023-05-22T15:58:25.150Z,25.98
2023-05-22T16:00:56.037Z,25.92
2023-05-22T16:03:26.877Z,25.86
2023-05-22T16:05:57.563Z,25.83
2023-05-22T16:09:19.444Z,25.77
2023-05-22T16:13:02.286Z,25.67
2023-05-22T16:15:34.221Z,25.56
2023-05-22T16:18:04.921Z,25.51
2023-05-22T16:20:35.556Z,25.45
2023-05-22T16:23:06.125Z,25.40
2023-05-22T16:25:36.689Z,25.35
2023-05-22T16:28:07.426Z,25.30
2023-05-22T16:30:39.995Z,25.28
2023-05-22T16:33:10.980Z,25.27
2023-05-22T16:35:46.870Z,25.24
2023-05-22T16:38:17.562Z,25.22
2023-05-22T16:40:48.084Z,25.19
2023-05-22T16:43:18.564Z,25.18
2023-05-22T16:45:51.342Z,25.15
2023-05-22T16:48:22.022Z,25.12
2023-05-22T16:50:52.542Z,25.08
2023-05-22T16:53:23.318Z,25.04
2023-05-22T16:55:54.106Z,25.01
2023-05-22T16:58:24.611Z,24.97
2023-05-22T17:00:56.084Z,24.93
2023-05-22T17:03:27.077Z,24.87
2023-05-22T17:05:57.902Z,24.83
2023-05-22T17:08:28.472Z,24.78
2023-05-22T17:10:59.016Z,24.74
2023-05-22T17:13:29.534Z,24.70
2023-05-22T17:16:00.277Z,24.66
2023-05-22T17:18:30.790Z,24.63
2023-05-22T17:21:01.283Z,24.60
2023-05-22T17:23:31.847Z,24.57
2023-05-22T17:26:02.435Z,24.54
2023-05-22T17:28:33.450Z,24.50
2023-05-22T17:31:03.959Z,24.47
2023-05-22T17:33:34.859Z,24.44
2023-05-22T17:36:05.844Z,24.41
2023-05-22T17:38:36.387Z,24.39
2023-05-22T17:41:07.019Z,24.37
2023-05-22T17:43:38.373Z,24.33
2023-05-22T17:46:09.234Z,24.30
2023-05-22T17:48:41.066Z,24.27
2023-05-22T17:51:12.077Z,24.24
2023-05-22T17:53:43.272Z,24.21
2023-05-22T17:56:16.278Z,24.18
2023-05-22T17:58:46.782Z,24.15
2023-05-22T18:01:18.226Z,24.12
2023-05-22T18:03:48.537Z,24.09
2023-05-22T18:06:19.939Z,24.05
2023-05-22T18:08:51.659Z,24.02
2023-05-22T18:11:23.183Z,23.99
2023-05-22T18:13:53.664Z,23.96
2023-05-22T18:16:26.871Z,23.92
2023-05-22T18:18:59.624Z,23.90
2023-05-22T18:21:30.217Z,23.87
2023-05-22T18:24:00.784Z,23.84
2023-05-22T18:26:31.532Z,23.81
2023-05-22T18:29:02.049Z,23.79
2023-05-22T18:31:32.708Z,23.76
2023-05-22T18:34:05.327Z,23.73
2023-05-22T18:36:35.842Z,23.70
2023-05-22T18:39:07.434Z,23.67
2023-05-22T18:41:38.882Z,23.64
2023-05-22T18:44:08.667Z,23.60
2023-05-22T18:46:39.216Z,23.56
2023-05-22T18:49:09.793Z,23.53
2023-05-22T18:51:40.313Z,23.51
2023-05-22T18:54:10.855Z,23.49
2023-05-22T18:56:41.471Z,23.47
2023-05-22T18:59:11.982Z,23.48
2023-05-22T19:01:42.673Z,23.49
2023-05-22T19:04:13.403Z,23.49
2023-05-22T19:06:43.883Z,23.49
2023-05-22T19:09:14.739Z,23.48
2023-05-22T19:11:45.241Z,23.48
2023-05-22T19:14:16.076Z,23.48
2023-05-22T19:16:46.711Z,23.48
2023-05-22T19:19:17.366Z,23.47
2023-05-22T19:21:48.045Z,23.47
2023-05-22T19:24:18.537Z,23.45
2023-05-22T19:26:49.068Z,23.43
2023-05-22T19:29:19.582Z,23.39
2023-05-22T19:31:51.241Z,23.36
2023-05-22T19:34:21.767Z,23.32
2023-05-22T19:36:57.515Z,23.29
2023-05-22T19:39:28.036Z,23.25
2023-05-22T19:41:58.570Z,23.21
2023-05-22T19:44:29.273Z,23.18
2023-05-22T19:46:59.719Z,23.16
2023-05-22T19:49:31.617Z,23.13
2023-05-22T19:52:02.153Z,23.09
2023-05-22T19:54:32.663Z,23.07
2023-05-22T19:57:03.217Z,23.04
2023-05-22T19:59:36.493Z,23.02
2023-05-22T20:02:08.581Z,22.99
2023-05-22T20:04:43.064Z,22.97
2023-05-22T20:07:13.961Z,22.94
2023-05-22T20:09:45.260Z,22.92
2023-05-22T20:12:17.619Z,22.89
2023-05-22T20:14:48.490Z,22.88
2023-05-22T20:17:22.439Z,22.86
2023-05-22T20:19:54.086Z,22.83
2023-05-22T20:22:23.099Z,22.81
2023-05-22T20:24:53.615Z,22.77
2023-05-22T20:27:24.137Z,22.75
2023-05-22T20:29:55.030Z,22.72
2023-05-22T20:32:25.743Z,22.69
2023-05-22T20:34:56.594Z,22.66
2023-05-22T20:37:27.122Z,22.62
2023-05-22T20:40:09.488Z,22.60
2023-05-22T20:42:40.977Z,22.58
2023-05-22T20:45:14.780Z,22.55
2023-05-22T20:47:47.123Z,22.53
2023-05-22T20:50:17.856Z,22.52
2023-05-22T20:52:48.350Z,22.50
2023-05-22T20:55:18.877Z,22.48
2023-05-22T20:57:49.346Z,22.46
2023-05-22T21:00:20.739Z,22.43
2023-05-22T21:02:51.368Z,22.41
2023-05-22T21:05:22.077Z,22.38
2023-05-22T21:07:52.573Z,22.35
2023-05-22T21:10:23.077Z,22.32
2023-05-22T21:12:53.581Z,22.28
2023-05-22T21:15:24.252Z,22.25
2023-05-22T21:17:54.822Z,22.22
2023-05-22T21:20:25.684Z,22.20
2023-05-22T21:22:56.197Z,22.17
2023-05-22T21:25:26.651Z,22.14
2023-05-22T21:27:57.892Z,22.12
2023-05-22T21:30:28.408Z,22.09
2023-05-22T21:32:58.930Z,22.06
2023-05-22T21:35:29.595Z,22.04
2023-05-22T21:38:00.177Z,22.03
2023-05-22T21:40:30.659Z,22.02
2023-05-22T21:43:01.177Z,21.99
2023-05-22T21:45:32.231Z,21.97
2023-05-22T21:48:02.756Z,21.95
2023-05-22T21:50:33.728Z,21.94
2023-05-22T21:53:05.804Z,21.92
2023-05-22T21:55:36.359Z,21.90
2023-05-22T21:58:06.869Z,21.89
2023-05-22T22:00:37.430Z,21.88
2023-05-22T22:03:08.480Z,21.87
2023-05-22T22:05:39.601Z,21.86
2023-05-22T22:08:10.061Z,21.84
2023-05-22T22:10:40.727Z,21.82
2023-05-22T22:13:11.571Z,21.81
2023-05-22T22:15:42.099Z,21.80
2023-05-22T22:18:14.948Z,21.79
2023-05-22T22:20:45.785Z,21.77
2023-05-22T22:23:16.475Z,21.76
2023-05-22T22:25:47.053Z,21.74
2023-05-22T22:28:17.532Z,21.73
2023-05-22T22:30:48.381Z,21.72
2023-05-22T22:33:18.918Z,21.70
2023-05-22T22:35:49.761Z,21.67
2023-05-22T22:38:20.594Z,21.64
2023-05-22T22:40:51.358Z,21.62
2023-05-22T22:43:21.866Z,21.59
2023-05-22T22:45:52.472Z,21.54
2023-05-22T22:48:23.027Z,21.50
2023-05-22T22:50:53.774Z,21.46
2023-05-22T22:53:24.300Z,21.42
2023-05-22T22:55:59.238Z,21.36
2023-05-22T22:58:29.848Z,21.31
2023-05-22T23:01:00.399Z,21.28
2023-05-22T23:03:30.941Z,21.24
2023-05-22T23:06:01.542Z,21.20
2023-05-22T23:08:32.032Z,21.16
2023-05-22T23:11:02.648Z,21.12
2023-05-22T23:13:33.271Z,21.07
2023-05-22T23:16:03.926Z,21.02
2023-05-22T23:18:34.484Z,20.98
2023-05-22T23:21:05.217Z,20.93
2023-05-22T23:23:35.758Z,20.88
2023-05-22T23:26:06.673Z,20.83
2023-05-22T23:28:37.289Z,20.79
2023-05-22T23:31:09.731Z,20.75
2023-05-22T23:33:40.422Z,20.72
2023-05-22T23:36:11.096Z,20.68
2023-05-22T23:38:41.704Z,20.66
2023-05-22T23:41:12.196Z,20.63
2023-05-22T23:43:42.701Z,20.61
2023-05-22T23:46:14.226Z,20.59
2023-05-22T23:48:43.650Z,20.56
2023-05-22T23:51:14.742Z,20.53
2023-05-22T23:53:46.081Z,20.51
2023-05-22T23:56:17.105Z,20.48
2023-05-22T23:58:47.643Z,20.43
